Time;durP1;ratioP1;P1;durP2;ratioP2;P2;SDS_P1;SDS_P2;PMS_P1;PMS_P2;Temp;Humidity;BMP_temperature;BMP_pressure;BME280_temperature;BME280_humidity;BME280_pressure;Samples;Min_cycle;Max_cycle;Signal;HPM_P1;HPM_P2
2023/12/13 00:00:26;;;;;;;19.47;10.27;;;;;;;8.06;99.62;99086.13;7396690;19;20360;-79
2023/12/13 00:02:53;;;;;;;22.38;10.57;;;;;;;8.05;99.63;99087.13;7394914;19;20376;-78
2023/12/13 00:05:20;;;;;;;19.00;9.68;;;;;;;8.05;99.76;99087.13;7393334;19;20364;-78
2023/12/13 00:07:46;;;;;;;21.77;10.38;;;;;;;8.06;99.75;99083.50;7391624;19;20348;-78
2023/12/13 00:10:13;;;;;;;19.23;9.52;;;;;;;8.06;99.85;99078.22;7396242;19;20368;-78
2023/12/13 00:12:40;;;;;;;17.70;9.00;;;;;;;8.06;99.72;99080.84;7392486;19;20369;-78
2023/12/13 00:15:08;;;;;;;20.30;9.70;;;;;;;8.06;99.72;99080.84;7392368;19;20349;-78
2023/12/13 00:17:35;;;;;;;18.55;8.88;;;;;;;8.06;99.66;99075.56;7394061;19;20365;-78
2023/12/13 00:20:05;;;;;;;21.50;9.18;;;;;;;8.07;99.75;99073.72;7393534;19;20360;-78
2023/12/13 00:22:33;;;;;;;17.77;9.32;;;;;;;8.07;99.91;99079.81;7391341;19;20381;-79
2023/12/13 00:24:59;;;;;;;19.13;9.07;;;;;;;8.06;99.96;99072.13;7391293;19;20359;-79
2023/12/13 00:27:26;;;;;;;18.45;9.05;;;;;;;8.05;99.97;99073.91;7395324;19;20394;-78
2023/12/13 00:29:53;;;;;;;18.47;8.97;;;;;;;8.02;100.00;99071.69;7392299;19;20348;-78
2023/12/13 00:32:21;;;;;;;19.45;9.68;;;;;;;8.02;99.78;99066.41;7392937;19;20336;-78
2023/12/13 00:34:48;;;;;;;20.17;10.55;;;;;;;8.01;100.00;99056.88;7389007;19;20382;-78
2023/12/13 00:37:15;;;;;;;22.08;10.00;;;;;;;8.00;100.00;99063.16;7390006;19;20340;-78
2023/12/13 00:39:42;;;;;;;18.97;9.83;;;;;;;7.96;99.92;99061.91;7393011;19;20419;-78
2023/12/13 00:42:09;;;;;;;23.48;9.88;;;;;;;7.94;99.83;99064.75;7392783;19;20386;-78
2023/12/13 00:44:36;;;;;;;19.08;10.18;;;;;;;7.92;99.90;99058.84;7391190;19;20352;-79
2023/12/13 00:47:03;;;;;;;18.52;10.20;;;;;;;7.92;100.00;99050.13;7393345;19;20354;-79
2023/12/13 00:49:30;;;;;;;21.20;10.43;;;;;;;7.90;100.00;99046.88;7391561;19;20352;-79
2023/12/13 00:51:57;;;;;;;23.88;11.75;;;;;;;7.89;100.00;99039.97;7387977;19;20354;-78
2023/12/13 00:54:24;;;;;;;32.58;12.43;;;;;;;7.88;100.00;99039.13;7393946;19;20333;-79
2023/12/13 00:56:51;;;;;;;25.30;11.60;;;;;;;7.86;100.00;99043.00;7401838;19;20880;-78
2023/12/13 00:59:18;;;;;;;16.58;10.93;;;;;;;7.85;100.00;99044.00;7397578;19;20352;-79
2023/12/13 01:01:46;;;;;;;20.10;11.13;;;;;;;7.82;100.00;99044.41;7402416;19;20849;-78
2023/12/13 01:04:12;;;;;;;23.30;11.23;;;;;;;7.79;100.00;99044.81;7400152;19;20762;-78
2023/12/13 01:06:40;;;;;;;18.25;11.07;;;;;;;7.72;100.00;99040.31;7401122;19;20364;-78
2023/12/13 01:09:08;;;;;;;21.25;11.43;;;;;;;7.67;100.00;99036.63;7397378;19;20369;-78
2023/12/13 01:11:38;;;;;;;23.23;12.05;;;;;;;7.60;100.00;99043.72;7398117;19;22046;-78
2023/12/13 01:14:07;;;;;;;21.88;12.07;;;;;;;7.54;100.00;99042.66;7398197;19;20397;-78
2023/12/13 01:16:34;;;;;;;19.57;12.57;;;;;;;7.48;100.00;99038.16;7396868;19;20349;-79
2023/12/13 01:19:01;;;;;;;23.90;12.60;;;;;;;7.43;100.00;99032.66;7395388;19;20753;-79
2023/12/13 01:21:28;;;;;;;22.85;13.15;;;;;;;7.37;100.00;99036.06;7397556;19;20856;-78
2023/12/13 01:23:56;;;;;;;24.73;13.00;;;;;;;7.30;100.00;99026.31;7397010;19;20673;-78
2023/12/13 01:26:23;;;;;;;23.27;12.65;;;;;;;7.24;100.00;99035.00;7400117;19;20372;-78
2023/12/13 01:28:49;;;;;;;25.10;12.57;;;;;;;7.20;100.00;99030.31;7399602;19;20432;-78
2023/12/13 01:31:17;;;;;;;25.48;13.68;;;;;;;7.19;100.00;99040.03;7399896;19;20394;-79
2023/12/13 01:33:45;;;;;;;27.35;14.25;;;;;;;7.17;100.00;99041.25;7400938;19;20348;-78
2023/12/13 01:36:12;;;;;;;24.75;14.00;;;;;;;7.14;100.00;99037.19;7401287;19;20373;-78
2023/12/13 01:38:38;;;;;;;26.25;13.75;;;;;;;7.14;100.00;99045.09;7397263;19;20356;-78
2023/12/13 01:41:05;;;;;;;26.13;14.45;;;;;;;7.13;100.00;99051.34;7400175;19;20348;-78
2023/12/13 01:43:40;;;;;;;27.35;13.38;;;;;;;7.10;100.00;99042.03;7399429;19;20363;-79
2023/12/13 01:46:08;;;;;;;24.23;13.20;;;;;;;7.12;100.00;99045.28;7396958;19;20361;-79
2023/12/13 01:48:35;;;;;;;25.17;13.13;;;;;;;7.13;100.00;99056.63;7396510;19;20341;-79
2023/12/13 01:51:02;;;;;;;23.55;13.45;;;;;;;7.15;100.00;99049.34;7398248;19;20352;-78
2023/12/13 01:53:30;;;;;;;25.95;13.45;;;;;;;7.18;100.00;99045.50;7398358;19;20406;-79
2023/12/13 01:55:57;;;;;;;24.48;13.07;;;;;;;7.21;100.00;99039.84;7395379;19;20355;-78
2023/12/13 01:58:24;;;;;;;25.95;13.45;;;;;;;7.23;100.00;99036.00;7400333;19;20348;-79
2023/12/13 02:00:51;;;;;;;26.67;12.60;;;;;;;7.24;100.00;99034.19;7398024;19;20355;-78
2023/12/13 02:03:21;;;;;;;25.98;13.40;;;;;;;7.26;100.00;99032.16;7397451;19;20400;-79
2023/12/13 02:05:51;;;;;;;23.35;12.82;;;;;;;7.28;100.00;99030.97;7395113;19;20404;-78
2023/12/13 02:08:18;;;;;;;28.75;13.40;;;;;;;7.32;100.00;99028.75;7396522;19;20706;-79
2023/12/13 02:10:45;;;;;;;21.98;12.93;;;;;;;7.33;100.00;99031.22;7392758;19;20356;-78
2023/12/13 02:13:14;;;;;;;25.83;13.00;;;;;;;7.36;100.00;99030.00;7396667;19;20374;-79
2023/12/13 02:15:43;;;;;;;25.58;13.35;;;;;;;7.40;100.00;99030.44;7396331;19;20377;-78
2023/12/13 02:18:10;;;;;;;20.85;12.40;;;;;;;7.44;100.00;99034.28;7396109;19;20729;-78
2023/12/13 02:20:37;;;;;;;21.50;12.52;;;;;;;7.48;100.00;99030.25;7390563;19;20363;-78
2023/12/13 02:23:04;;;;;;;19.15;12.15;;;;;;;7.54;100.00;99024.19;7395785;19;20863;-78
2023/12/13 02:25:35;;;;;;;22.45;11.63;;;;;;;7.57;100.00;99020.38;7395503;19;20345;-78
2023/12/13 02:28:05;;;;;;;22.70;12.10;;;;;;;7.62;100.00;99021.38;7394630;19;20368;-79
2023/12/13 02:30:31;;;;;;;21.13;12.02;;;;;;;7.65;100.00;99023.63;7397965;19;20332;-79
2023/12/13 02:32:58;;;;;;;20.30;12.70;;;;;;;7.68;100.00;99023.22;7395048;19;20352;-79
2023/12/13 02:35:25;;;;;;;20.83;12.30;;;;;;;7.71;100.00;99020.22;7397614;19;20336;-79
2023/12/13 02:37:52;;;;;;;19.08;11.30;;;;;;;7.71;100.00;99022.03;7399622;19;20432;-79
2023/12/13 02:40:22;;;;;;;21.83;11.87;;;;;;;7.71;100.00;99028.13;7393693;19;20475;-79
2023/12/13 02:42:49;;;;;;;20.88;11.57;;;;;;;7.73;100.00;99031.38;7399211;19;20363;-79
2023/12/13 02:45:17;;;;;;;20.05;11.48;;;;;;;7.76;100.00;99020.44;7396106;19;20380;-79
2023/12/13 02:47:44;;;;;;;16.98;11.05;;;;;;;7.77;100.00;99013.31;7396338;19;20348;-78
2023/12/13 02:50:12;;;;;;;22.20;12.00;;;;;;;7.79;100.00;99021.03;7397634;19;20878;-78
2023/12/13 02:52:40;;;;;;;19.50;11.00;;;;;;;7.80;100.00;99020.03;7396812;19;20378;-79
2023/12/13 02:55:11;;;;;;;21.48;11.60;;;;;;;7.80;100.00;99025.31;7394738;19;20393;-79
2023/12/13 02:57:38;;;;;;;20.13;11.18;;;;;;;7.82;100.00;99024.13;7394846;19;20359;-79
2023/12/13 03:00:06;;;;;;;22.17;11.63;;;;;;;7.84;100.00;99029.16;7392009;19;21014;-79
2023/12/13 03:02:34;;;;;;;18.00;11.93;;;;;;;7.85;100.00;99028.97;7398861;19;20356;-78
2023/12/13 03:05:03;;;;;;;20.63;11.13;;;;;;;7.88;100.00;99025.13;7395581;19;20387;-79
2023/12/13 03:07:30;;;;;;;20.02;12.10;;;;;;;7.91;100.00;99027.38;7397806;19;20341;-79
2023/12/13 03:09:57;;;;;;;17.58;11.68;;;;;;;7.92;100.00;99029.81;7399118;19;20828;-79
2023/12/13 03:12:24;;;;;;;18.53;11.20;;;;;;;7.92;100.00;99035.09;7396308;19;20373;-78
2023/12/13 03:14:51;;;;;;;20.38;12.30;;;;;;;7.90;100.00;99034.47;7395731;19;20359;-78
2023/12/13 03:17:18;;;;;;;18.10;11.60;;;;;;;7.89;100.00;99037.31;7400527;19;20444;-79
2023/12/13 03:19:45;;;;;;;19.10;11.60;;;;;;;7.92;100.00;99021.06;7396097;19;20971;-79
2023/12/13 03:22:12;;;;;;;18.65;11.25;;;;;;;7.95;100.00;99021.50;7398740;19;20393;-79
2023/12/13 03:24:39;;;;;;;19.40;12.00;;;;;;;7.95;100.00;99018.06;7395437;19;20359;-79
2023/12/13 03:27:06;;;;;;;19.30;12.40;;;;;;;7.95;100.00;99016.22;7393589;19;20348;-79
2023/12/13 03:29:33;;;;;;;18.97;12.17;;;;;;;7.97;100.00;99019.47;7396857;19;20408;-78
2023/12/13 03:32:00;;;;;;;19.60;11.73;;;;;;;7.97;100.00;99013.41;7395932;19;20360;-79
2023/12/13 03:34:27;;;;;;;17.00;11.33;;;;;;;7.98;100.00;99015.00;7392167;19;20405;-79
2023/12/13 03:36:53;;;;;;;17.27;11.00;;;;;;;7.99;100.00;99003.44;7393923;19;20324;-79
2023/12/13 03:39:20;;;;;;;17.38;11.27;;;;;;;8.00;100.00;99002.41;7393741;19;20376;-79
2023/12/13 03:41:47;;;;;;;20.63;12.43;;;;;;;7.98;100.00;99009.72;7393928;19;20685;-78
2023/12/13 03:44:13;;;;;;;17.25;11.77;;;;;;;7.99;100.00;99008.72;7394619;19;20353;-78
2023/12/13 03:46:40;;;;;;;18.17;12.40;;;;;;;8.01;100.00;99001.41;7394862;19;20360;-78
2023/12/13 03:49:07;;;;;;;19.05;11.85;;;;;;;8.01;100.00;99006.69;7395926;19;20867;-79
2023/12/13 03:51:35;;;;;;;17.63;11.75;;;;;;;8.01;100.00;99001.41;7392792;19;20813;-78
2023/12/13 03:54:02;;;;;;;18.33;11.95;;;;;;;8.03;100.00;99002.00;7394215;19;20361;-78
2023/12/13 03:56:29;;;;;;;22.70;12.73;;;;;;;8.01;100.00;98996.13;7394062;19;20875;-78
2023/12/13 03:58:56;;;;;;;17.27;11.77;;;;;;;8.01;100.00;99006.69;7393287;19;20491;-78
2023/12/13 04:01:23;;;;;;;17.27;12.15;;;;;;;7.99;100.00;99003.44;7395537;19;20352;-78
2023/12/13 04:03:50;;;;;;;17.23;12.02;;;;;;;8.00;100.00;98994.50;7395709;19;20650;-78
2023/12/13 04:06:17;;;;;;;18.73;12.77;;;;;;;8.01;100.00;98996.13;7395388;19;20868;-78
2023/12/13 04:08:44;;;;;;;19.10;12.43;;;;;;;8.03;100.00;98993.28;7392498;19;20352;-79
2023/12/13 04:11:11;;;;;;;16.40;11.93;;;;;;;8.04;100.00;99003.66;7390487;19;20348;-79
2023/12/13 04:13:38;;;;;;;19.40;12.35;;;;;;;8.04;100.00;98995.72;7392903;19;20373;-79
2023/12/13 04:16:05;;;;;;;16.63;12.50;;;;;;;8.06;100.00;99001.63;7393506;19;20352;-78
2023/12/13 04:18:32;;;;;;;17.33;12.40;;;;;;;8.06;100.00;98998.19;7392943;19;20425;-78
2023/12/13 04:20:59;;;;;;;17.77;12.80;;;;;;;8.07;100.00;98995.31;7393787;19;20871;-79
2023/12/13 04:23:25;;;;;;;16.50;12.73;;;;;;;8.08;100.00;99002.25;7390589;19;20459;-79
2023/12/13 04:25:52;;;;;;;18.70;11.70;;;;;;;8.10;100.00;99002.84;7395753;19;20400;-78
2023/12/13 04:28:19;;;;;;;15.60;11.95;;;;;;;8.09;100.00;99001.22;7396488;19;20344;-79
2023/12/13 04:30:46;;;;;;;18.20;12.75;;;;;;;8.11;100.00;98993.09;7401179;19;20360;-79
2023/12/13 04:33:13;;;;;;;15.67;12.10;;;;;;;8.13;100.00;98997.16;7400889;19;20429;-79
2023/12/13 04:35:39;;;;;;;16.35;11.77;;;;;;;8.14;100.00;98995.34;7400886;19;20885;-79
2023/12/13 04:38:06;;;;;;;15.05;11.73;;;;;;;8.13;100.00;98988.44;7400578;19;20352;-79
2023/12/13 04:40:33;;;;;;;13.98;11.60;;;;;;;8.14;100.00;98998.81;7398773;19;20365;-78
2023/12/13 04:43:00;;;;;;;15.18;11.80;;;;;;;8.13;100.00;99009.56;7398918;19;20475;-78
2023/12/13 04:45:27;;;;;;;14.17;11.90;;;;;;;8.11;100.00;98999.19;7399663;19;20354;-78
2023/12/13 04:47:54;;;;;;;15.15;11.32;;;;;;;8.12;100.00;99003.47;7402065;19;20332;-78
2023/12/13 04:50:22;;;;;;;13.55;11.35;;;;;;;8.10;100.00;99002.84;7401723;19;20364;-79
2023/12/13 04:52:49;;;;;;;14.98;11.70;;;;;;;8.11;100.00;99001.81;7401148;19;20432;-79
2023/12/13 04:55:15;;;;;;;15.30;12.07;;;;;;;8.10;100.00;98999.41;7400846;19;20404;-79
2023/12/13 04:57:42;;;;;;;15.00;11.95;;;;;;;8.10;100.00;98996.75;7400321;19;20772;-78
2023/12/13 05:00:09;;;;;;;16.15;11.82;;;;;;;8.10;100.00;98994.13;7397057;19;20353;-78
2023/12/13 05:02:36;;;;;;;15.27;11.75;;;;;;;8.11;100.00;98993.09;7399201;19;20377;-79
2023/12/13 05:05:03;;;;;;;13.85;11.02;;;;;;;8.11;100.00;98988.63;7399042;19;20380;-79
2023/12/13 05:07:30;;;;;;;14.65;11.02;;;;;;;8.13;100.00;98991.88;7393745;19;20385;-78
2023/12/13 05:09:57;;;;;;;13.85;10.60;;;;;;;8.14;100.00;98992.72;7398712;19;20360;-78
2023/12/13 05:12:24;;;;;;;13.80;10.57;;;;;;;8.15;100.00;98992.47;7399194;19;20361;-78
2023/12/13 05:14:50;;;;;;;12.85;9.90;;;;;;;8.16;100.00;98990.69;7398546;19;20896;-78
2023/12/13 05:17:17;;;;;;;12.00;10.50;;;;;;;8.19;100.00;98992.91;7400037;19;20734;-78
2023/12/13 05:19:44;;;;;;;12.60;10.05;;;;;;;8.23;100.00;98993.31;7397397;19;20361;-78
2023/12/13 05:22:11;;;;;;;13.90;10.32;;;;;;;8.24;100.00;98994.94;7398069;19;20359;-78
2023/12/13 05:24:37;;;;;;;12.20;9.35;;;;;;;8.29;100.00;98989.88;7399137;19;20377;-78
2023/12/13 05:27:05;;;;;;;10.82;9.00;;;;;;;8.32;100.00;98992.09;7398637;19;20353;-79
2023/12/13 05:29:32;;;;;;;13.93;10.15;;;;;;;8.37;100.00;98989.66;7397460;19;20366;-78
2023/12/13 05:31:59;;;;;;;13.43;9.98;;;;;;;8.40;100.00;98991.09;7399051;19;20356;-78
2023/12/13 05:34:26;;;;;;;13.65;11.45;;;;;;;8.43;100.00;98991.53;7397057;19;20369;-79
2023/12/13 05:36:53;;;;;;;11.23;9.70;;;;;;;8.44;100.00;98990.53;7397788;19;20851;-79
2023/12/13 05:39:20;;;;;;;10.10;9.00;;;;;;;8.49;100.00;98992.56;7399673;19;20357;-79
2023/12/13 05:41:46;;;;;;;10.80;7.97;;;;;;;8.51;100.00;98988.69;7396058;19;20357;-79
2023/12/13 05:44:13;;;;;;;11.32;9.27;;;;;;;8.55;100.00;98994.38;7398102;19;20362;-79
2023/12/13 05:46:40;;;;;;;9.60;8.10;;;;;;;8.57;100.00;98989.72;7399013;19;20368;-77
2023/12/13 05:49:06;;;;;;;9.55;8.02;;;;;;;8.62;100.00;98989.91;7396578;19;20332;-78
2023/12/13 05:51:37;;;;;;;9.57;7.68;;;;;;;8.65;100.00;98991.31;7399530;19;20393;-78
2023/12/13 05:54:05;;;;;;;10.68;7.88;;;;;;;8.67;100.00;98984.84;7397457;19;20360;-78
2023/12/13 05:56:32;;;;;;;8.77;7.32;;;;;;;8.69;100.00;98993.38;7401490;19;20860;-78
2023/12/13 05:58:58;;;;;;;10.85;8.00;;;;;;;8.71;100.00;98995.78;7402123;19;20348;-81
2023/12/13 06:01:25;;;;;;;12.43;8.75;;;;;;;8.72;100.00;98990.31;7416907;19;20357;-81
2023/12/13 06:03:52;;;;;;;9.10;8.07;;;;;;;8.73;100.00;98999.03;7423165;19;20758;-81
2023/12/13 06:06:19;;;;;;;8.80;7.47;;;;;;;8.75;100.00;98997.00;7417754;19;20344;-81
2023/12/13 06:08:46;;;;;;;10.32;7.82;;;;;;;8.76;100.00;98998.66;7418902;19;20352;-81
2023/12/13 06:11:13;;;;;;;10.68;8.02;;;;;;;8.77;100.00;99000.25;7421479;19;20361;-80
2023/12/13 06:13:39;;;;;;;9.50;7.90;;;;;;;8.79;100.00;99000.88;7420566;19;20415;-80
2023/12/13 06:16:12;;;;;;;11.45;7.95;;;;;;;8.80;100.00;98994.59;7421350;19;20396;-80
2023/12/13 06:18:39;;;;;;;8.48;7.47;;;;;;;8.82;100.00;99004.94;7419238;19;20348;-81
2023/12/13 06:21:07;;;;;;;10.13;7.63;;;;;;;8.82;100.00;99008.41;7412332;19;20381;-82
2023/12/13 06:23:34;;;;;;;9.02;7.72;;;;;;;8.81;100.00;99001.47;7398718;19;20356;-82
2023/12/13 06:26:02;;;;;;;9.30;7.60;;;;;;;8.81;100.00;99001.47;7402547;19;20373;-82
2023/12/13 06:28:29;;;;;;;10.05;7.80;;;;;;;8.80;100.00;98999.03;7404876;19;20435;-82
2023/12/13 06:30:56;;;;;;;10.07;7.88;;;;;;;8.84;100.00;99000.25;7410768;19;20456;-81
2023/12/13 06:33:23;;;;;;;11.52;9.25;;;;;;;8.86;100.00;99007.00;7399288;19;20867;-81
2023/12/13 06:35:50;;;;;;;16.77;13.10;;;;;;;8.88;100.00;99004.94;7400173;19;20353;-81
2023/12/13 06:38:16;;;;;;;16.37;13.87;;;;;;;8.91;100.00;99007.16;7399848;19;20369;-81
2023/12/13 06:40:44;;;;;;;16.77;13.30;;;;;;;8.92;100.00;99003.50;7398422;19;20815;-81
2023/12/13 06:43:11;;;;;;;13.00;10.40;;;;;;;8.92;100.00;99005.34;7396574;19;20360;-81
2023/12/13 06:45:38;;;;;;;10.20;8.95;;;;;;;8.91;100.00;99004.53;7399117;19;20345;-81
2023/12/13 06:48:06;;;;;;;10.63;8.82;;;;;;;8.90;100.00;99008.16;7398210;19;20348;-81
2023/12/13 06:50:33;;;;;;;11.43;8.40;;;;;;;8.89;100.00;99006.56;7400132;19;20420;-81
2023/12/13 06:53:00;;;;;;;9.90;8.90;;;;;;;8.87;100.00;99008.59;7395952;19;20388;-81
2023/12/13 06:55:27;;;;;;;10.55;8.95;;;;;;;8.85;100.00;99002.69;7400615;19;20344;-81
2023/12/13 06:57:54;;;;;;;12.15;9.85;;;;;;;8.86;100.00;99006.16;7398640;19;20348;-81
2023/12/13 07:00:21;;;;;;;11.43;9.63;;;;;;;8.83;100.00;99002.09;7397068;19;20405;-81
2023/12/13 07:02:49;;;;;;;11.68;10.18;;;;;;;8.82;100.00;99007.56;7399831;19;20343;-81
2023/12/13 07:05:16;;;;;;;11.90;10.30;;;;;;;8.80;100.00;99007.81;7397374;19;20360;-81
2023/12/13 07:07:43;;;;;;;13.00;10.82;;;;;;;8.82;100.00;99013.69;7395950;19;20353;-81
2023/12/13 07:10:10;;;;;;;13.05;11.68;;;;;;;8.78;100.00;99010.66;7398462;19;20341;-80
2023/12/13 07:12:37;;;;;;;13.43;11.57;;;;;;;8.77;100.00;99013.47;7396362;19;20373;-81
2023/12/13 07:15:06;;;;;;;14.18;12.30;;;;;;;8.75;100.00;99018.97;7397500;19;20344;-81
2023/12/13 07:17:33;;;;;;;20.25;15.95;;;;;;;8.71;100.00;99012.50;7399879;19;20867;-82
2023/12/13 07:20:00;;;;;;;18.27;15.65;;;;;;;8.71;100.00;99022.22;7397891;19;20411;-81
2023/12/13 07:22:27;;;;;;;17.25;14.93;;;;;;;8.68;100.00;99020.81;7396938;19;20411;-81
2023/12/13 07:24:54;;;;;;;19.60;14.83;;;;;;;8.66;100.00;99019.41;7398525;19;20382;-81
2023/12/13 07:27:21;;;;;;;16.98;13.85;;;;;;;8.64;100.00;99021.44;7395105;19;20706;-81
2023/12/13 07:29:47;;;;;;;14.63;13.10;;;;;;;8.64;100.00;99024.88;7390849;19;20421;-85
2023/12/13 07:32:14;;;;;;;17.65;14.32;;;;;;;8.65;100.00;99028.31;7395528;19;20392;-85
2023/12/13 07:34:44;;;;;;;15.77;13.63;;;;;;;8.68;100.00;99033.22;7398651;19;20351;-85
2023/12/13 07:37:11;;;;;;;14.48;12.10;;;;;;;8.70;100.00;99023.25;7398726;19;20361;-85
2023/12/13 07:39:38;;;;;;;13.48;11.80;;;;;;;8.71;100.00;99022.22;7399157;19;20365;-85
2023/12/13 07:42:06;;;;;;;12.48;10.85;;;;;;;8.75;100.00;99028.72;7398286;19;20376;-85
2023/12/13 07:44:33;;;;;;;13.23;11.48;;;;;;;8.78;100.00;99038.91;7402737;19;20364;-85
2023/12/13 07:47:00;;;;;;;14.73;11.15;;;;;;;8.82;100.00;99040.16;7401654;19;20378;-85
2023/12/13 07:49:28;;;;;;;14.23;10.43;;;;;;;8.86;100.00;99041.38;7402539;19;20945;-85
2023/12/13 07:51:55;;;;;;;11.95;10.50;;;;;;;8.91;100.00;99035.44;7399954;19;20480;-85
2023/12/13 07:54:22;;;;;;;11.35;10.10;;;;;;;8.94;100.00;99038.47;7399235;19;20693;-85
2023/12/13 07:56:52;;;;;;;11.40;10.02;;;;;;;8.98;100.00;99031.75;7400966;19;20357;-85
2023/12/13 07:59:19;;;;;;;11.32;9.93;;;;;;;9.03;100.00;99030.34;7398454;19;20480;-85
2023/12/13 08:01:47;;;;;;;11.93;9.60;;;;;;;9.04;100.00;99031.97;7397282;19;20372;-85
2023/12/13 08:04:15;;;;;;;11.52;9.82;;;;;;;9.07;100.00;99039.50;7402997;19;20351;-85
2023/12/13 08:06:42;;;;;;;12.57;9.30;;;;;;;9.10;100.00;99036.44;7398200;19;20368;-85
2023/12/13 08:09:09;;;;;;;11.50;9.47;;;;;;;9.12;100.00;99043.16;7403677;19;20367;-85
2023/12/13 08:11:37;;;;;;;14.38;9.55;;;;;;;9.15;100.00;99041.94;7407160;19;20385;-85
2023/12/13 08:14:04;;;;;;;10.68;9.32;;;;;;;9.17;99.75;99040.69;7402432;19;20723;-85
2023/12/13 08:16:31;;;;;;;11.63;9.30;;;;;;;9.20;100.00;99047.41;7405483;19;20353;-85
2023/12/13 08:18:58;;;;;;;11.13;8.90;;;;;;;9.25;100.00;99044.16;7406986;19;20364;-85
2023/12/13 08:21:25;;;;;;;10.50;8.88;;;;;;;9.26;100.00;99045.78;7405391;19;20349;-85
2023/12/13 08:23:52;;;;;;;9.65;8.65;;;;;;;9.25;99.78;99044.16;7407886;19;20348;-85
2023/12/13 08:26:20;;;;;;;10.07;8.88;;;;;;;9.24;99.42;99045.16;7401479;19;20361;-85
2023/12/13 08:28:47;;;;;;;10.18;9.10;;;;;;;9.22;99.63;99048.00;7403439;19;20405;-85
2023/12/13 08:31:23;;;;;;;9.75;8.75;;;;;;;9.20;99.59;99047.41;7405852;19;20420;-85
2023/12/13 08:33:53;;;;;;;11.30;9.35;;;;;;;9.18;99.44;99049.47;7405059;19;20378;-84
2023/12/13 08:36:22;;;;;;;10.32;9.00;;;;;;;9.19;99.90;99045.78;7405110;19;20353;-85
2023/12/13 08:38:51;;;;;;;11.27;9.35;;;;;;;9.20;99.94;99052.69;7403801;19;20398;-85
2023/12/13 08:41:17;;;;;;;11.13;9.30;;;;;;;9.25;100.00;99058.19;7405207;19;21023;-84
2023/12/13 08:43:44;;;;;;;10.80;8.63;;;;;;;9.30;100.00;99057.56;7403272;19;20746;-85
2023/12/13 08:46:11;;;;;;;12.38;9.00;;;;;;;9.34;100.00;99064.88;7401589;19;20347;-85
2023/12/13 08:48:39;;;;;;;9.75;8.75;;;;;;;9.38;100.00;99055.50;7405553;19;20759;-85
2023/12/13 08:51:06;;;;;;;10.07;8.70;;;;;;;9.42;99.87;99055.13;7406293;19;20360;-85
2023/12/13 08:53:32;;;;;;;11.02;8.52;;;;;;;9.47;99.83;99057.94;7405184;19;20367;-85
2023/12/13 08:55:59;;;;;;;9.67;8.67;;;;;;;9.52;99.65;99055.47;7406513;19;20340;-85
2023/12/13 08:58:30;;;;;;;9.38;8.00;;;;;;;9.55;99.60;99057.72;7407537;19;20426;-85
2023/12/13 09:00:58;;;;;;;10.45;8.52;;;;;;;9.61;99.79;99064.03;7404423;19;20365;-84
2023/12/13 09:03:25;;;;;;;10.35;8.35;;;;;;;9.64;99.33;99064.41;7406260;19;20364;-85
2023/12/13 09:05:53;;;;;;;9.27;7.47;;;;;;;9.68;99.01;99065.59;7404615;19;20428;-84
2023/12/13 09:08:20;;;;;;;9.68;8.05;;;;;;;9.69;98.89;99061.94;7402894;19;20410;-84
2023/12/13 09:10:46;;;;;;;9.27;7.80;;;;;;;9.74;99.08;99058.66;7407210;19;20401;-84
2023/12/13 09:13:13;;;;;;;10.05;7.97;;;;;;;9.78;99.38;99063.34;7403961;19;20347;-84
2023/12/13 09:15:42;;;;;;;11.07;7.80;;;;;;;9.84;99.21;99063.50;7403102;19;20357;-84
2023/12/13 09:18:09;;;;;;;10.07;8.02;;;;;;;9.92;99.30;99071.22;7408532;19;20396;-84
2023/12/13 09:20:36;;;;;;;9.65;7.70;;;;;;;10.01;99.04;99069.97;7404494;19;20353;-84
2023/12/13 09:23:04;;;;;;;10.23;7.57;;;;;;;10.10;98.95;99076.66;7400419;19;20432;-84
2023/12/13 09:25:31;;;;;;;9.70;7.60;;;;;;;10.21;98.33;99081.25;7402461;19;20523;-84
2023/12/13 09:28:00;;;;;;;9.85;7.25;;;;;;;10.32;98.45;99081.66;7406642;19;20369;-84
2023/12/13 09:30:26;;;;;;;7.85;7.03;;;;;;;10.42;97.88;99081.19;7398933;19;20352;-84
2023/12/13 09:32:53;;;;;;;9.43;7.82;;;;;;;10.53;97.92;99083.97;7404141;19;20578;-84
2023/12/13 09:35:20;;;;;;;7.43;6.63;;;;;;;10.59;97.11;99077.81;7406549;19;20393;-84
2023/12/13 09:37:47;;;;;;;7.70;6.47;;;;;;;10.66;97.06;99083.06;7407581;19;20364;-84
2023/12/13 09:40:15;;;;;;;8.18;6.70;;;;;;;10.76;97.09;99087.91;7417768;19;20360;-84
2023/12/13 09:42:46;;;;;;;9.07;6.87;;;;;;;10.81;96.56;99086.19;7405457;19;20349;-84
2023/12/13 09:45:20;;;;;;;7.80;6.38;;;;;;;10.85;95.81;99093.75;7404408;19;20340;-84
2023/12/13 09:47:50;;;;;;;8.45;6.18;;;;;;;10.87;95.85;99084.53;7408715;19;20357;-84
2023/12/13 09:50:18;;;;;;;8.32;5.75;;;;;;;10.89;95.30;99085.13;7422415;19;20348;-83
2023/12/13 09:52:45;;;;;;;9.23;6.68;;;;;;;10.91;94.96;99091.03;7422207;19;20404;-84
2023/12/13 09:55:12;;;;;;;9.55;6.50;;;;;;;10.93;95.52;99086.31;7424500;19;20360;-83
2023/12/13 09:57:39;;;;;;;8.90;6.25;;;;;;;11.01;95.34;99095.88;7422386;19;20409;-84
2023/12/13 10:00:06;;;;;;;11.30;6.50;;;;;;;11.05;95.21;99089.09;7405534;19;20428;-84
2023/12/13 10:02:35;;;;;;;11.32;7.03;;;;;;;11.11;95.11;99096.16;7399608;19;20364;-84
2023/12/13 10:05:02;;;;;;;10.50;6.88;;;;;;;11.11;94.62;99098.00;7402409;19;20391;-84
2023/12/13 10:07:29;;;;;;;10.05;6.40;;;;;;;11.10;94.09;99093.75;7401613;19;20457;-84
2023/12/13 10:09:56;;;;;;;9.30;6.53;;;;;;;11.12;94.32;99094.34;7401290;19;20363;-84
2023/12/13 10:12:25;;;;;;;11.00;6.88;;;;;;;11.13;94.25;99091.44;7404688;19;20355;-84
2023/12/13 10:14:52;;;;;;;16.70;8.07;;;;;;;11.11;93.66;99093.50;7398829;19;20409;-84
2023/12/13 10:17:22;;;;;;;16.55;7.82;;;;;;;11.09;93.66;99090.25;7402296;19;20374;-83
2023/12/13 10:19:49;;;;;;;13.05;6.80;;;;;;;11.04;93.18;99087.47;7404388;19;20848;-84
2023/12/13 10:22:16;;;;;;;9.03;5.40;;;;;;;10.96;92.91;99099.16;7402990;19;20463;-84
2023/12/13 10:24:44;;;;;;;6.90;4.80;;;;;;;10.87;92.37;99094.34;7399492;19;20341;-84
2023/12/13 10:27:11;;;;;;;6.32;4.80;;;;;;;10.74;91.89;99096.06;7400064;19;20356;-84
2023/12/13 10:29:37;;;;;;;6.90;5.10;;;;;;;10.61;92.30;99101.47;7401550;19;20348;-84
2023/12/13 10:32:04;;;;;;;9.83;6.37;;;;;;;10.56;93.08;99099.47;7398212;19;20516;-83
2023/12/13 10:34:31;;;;;;;7.45;5.22;;;;;;;10.49;93.21;99098.66;7397325;19;20348;-82
2023/12/13 10:36:59;;;;;;;7.05;4.70;;;;;;;10.43;93.63;99104.81;7402194;19;20379;-83
2023/12/13 10:39:27;;;;;;;7.85;5.32;;;;;;;10.41;93.99;99101.56;7401195;19;20858;-84
2023/12/13 10:41:56;;;;;;;7.35;4.85;;;;;;;10.40;94.18;99102.59;7398568;19;20385;-84
2023/12/13 10:44:23;;;;;;;5.93;4.43;;;;;;;10.37;94.16;99103.84;7396408;19;20874;-84
2023/12/13 10:46:58;;;;;;;5.68;4.30;;;;;;;10.30;94.05;99105.72;7400928;19;20889;-83
2023/12/13 10:49:26;;;;;;;5.80;4.28;;;;;;;10.28;94.45;99106.91;7400567;19;20370;-85
2023/12/13 10:51:54;;;;;;;6.43;4.67;;;;;;;10.27;94.76;99100.81;7395296;19;20730;-83
2023/12/13 10:54:21;;;;;;;6.65;4.00;;;;;;;10.25;95.04;99097.56;7396567;19;20377;-83
2023/12/13 10:56:48;;;;;;;7.65;4.03;;;;;;;10.26;95.03;99098.38;7400177;19;20357;-83
2023/12/13 10:59:16;;;;;;;5.85;3.90;;;;;;;10.27;94.87;99097.34;7402334;19;20365;-82
2023/12/13 11:01:45;;;;;;;4.55;3.63;;;;;;;10.25;94.79;99099.41;7398512;19;20401;-83
2023/12/13 11:04:16;;;;;;;6.53;4.28;;;;;;;10.26;95.08;99101.03;7400788;19;20434;-83
2023/12/13 11:06:47;;;;;;;4.80;3.72;;;;;;;10.24;95.11;99103.06;7402930;19;20402;-83
2023/12/13 11:09:21;;;;;;;5.97;4.10;;;;;;;10.27;95.35;99105.31;7398923;19;20389;-83
2023/12/13 11:11:48;;;;;;;6.47;3.75;;;;;;;10.35;95.96;99099.81;7400525;19;20431;-83
2023/12/13 11:14:17;;;;;;;5.50;3.75;;;;;;;10.40;95.46;99099.97;7398592;19;20364;-84
2023/12/13 11:16:50;;;;;;;6.63;3.40;;;;;;;10.42;94.99;99097.91;7396608;19;20386;-84
2023/12/13 11:19:22;;;;;;;9.25;5.75;;;;;;;10.44;95.05;99106.47;7396201;19;20493;-83
2023/12/13 11:21:52;;;;;;;5.47;3.80;;;;;;;10.49;95.04;99117.22;7398653;19;20729;-84
2023/12/13 11:24:25;;;;;;;6.63;4.10;;;;;;;10.52;95.03;99114.16;7399167;19;20356;-84